sensor_id;sensor_type;location;lat;lon;timestamp;temperature;humidity
21246;DHT22;10781;50.928;4.440;2022-11-15T00:00:26;13.30;99.90
21246;DHT22;10781;50.928;4.440;2022-11-15T00:02:52;13.20;99.90
21246;DHT22;10781;50.928;4.440;2022-11-15T00:05:18;13.10;99.90
21246;DHT22;10781;50.928;4.440;2022-11-15T00:07:44;13.20;99.90
21246;DHT22;10781;50.928;4.440;2022-11-15T00:10:09;13.00;99.90
21246;DHT22;10781;50.928;4.440;2022-11-15T00:12:35;13.00;99.90
21246;DHT22;10781;50.928;4.440;2022-11-15T00:15:01;13.00;99.90
21246;DHT22;10781;50.928;4.440;2022-11-15T00:17:26;12.80;99.90
21246;DHT22;10781;50.928;4.440;2022-11-15T00:19:52;12.90;99.90
21246;DHT22;10781;50.928;4.440;2022-11-15T00:22:17;13.00;99.90
21246;DHT22;10781;50.928;4.440;2022-11-15T00:24:43;13.10;99.90
21246;DHT22;10781;50.928;4.440;2022-11-15T00:27:09;13.10;99.90
21246;DHT22;10781;50.928;4.440;2022-11-15T00:29:34;13.10;99.90
21246;DHT22;10781;50.928;4.440;2022-11-15T00:32:00;13.10;99.90
21246;DHT22;10781;50.928;4.440;2022-11-15T00:34:25;13.10;99.90
21246;DHT22;10781;50.928;4.440;2022-11-15T00:36:51;13.10;99.90
21246;DHT22;10781;50.928;4.440;2022-11-15T00:39:16;13.20;99.90
21246;DHT22;10781;50.928;4.440;2022-11-15T00:41:42;13.20;99.90
21246;DHT22;10781;50.928;4.440;2022-11-15T00:44:07;13.10;99.90
21246;DHT22;10781;50.928;4.440;2022-11-15T00:46:33;13.20;99.90
21246;DHT22;10781;50.928;4.440;2022-11-15T00:48:59;13.20;99.90
21246;DHT22;10781;50.928;4.440;2022-11-15T00:51:24;13.10;99.90
21246;DHT22;10781;50.928;4.440;2022-11-15T00:53:50;13.10;99.90
21246;DHT22;10781;50.928;4.440;2022-11-15T00:56:15;13.10;99.90
21246;DHT22;10781;50.928;4.440;2022-11-15T00:58:41;13.20;99.90
21246;DHT22;10781;50.928;4.440;2022-11-15T01:01:12;13.20;99.90
21246;DHT22;10781;50.928;4.440;2022-11-15T01:03:38;13.40;99.90
21246;DHT22;10781;50.928;4.440;2022-11-15T01:06:04;13.30;99.90
21246;DHT22;10781;50.928;4.440;2022-11-15T01:08:30;13.20;99.90
21246;DHT22;10781;50.928;4.440;2022-11-15T01:11:08;13.30;99.90
21246;DHT22;10781;50.928;4.440;2022-11-15T01:13:35;13.30;99.90
21246;DHT22;10781;50.928;4.440;2022-11-15T01:16:12;13.30;99.90
21246;DHT22;10781;50.928;4.440;2022-11-15T01:18:38;13.50;99.90
21246;DHT22;10781;50.928;4.440;2022-11-15T01:21:09;13.40;99.90
21246;DHT22;10781;50.928;4.440;2022-11-15T01:23:35;13.40;99.90
21246;DHT22;10781;50.928;4.440;2022-11-15T01:26:03;13.40;99.90
21246;DHT22;10781;50.928;4.440;2022-11-15T01:28:37;13.40;99.90
21246;DHT22;10781;50.928;4.440;2022-11-15T01:31:06;13.30;99.90
21246;DHT22;10781;50.928;4.440;2022-11-15T01:33:34;13.40;99.90
21246;DHT22;10781;50.928;4.440;2022-11-15T01:36:05;13.50;99.90
21246;DHT22;10781;50.928;4.440;2022-11-15T01:38:32;13.40;99.90
21246;DHT22;10781;50.928;4.440;2022-11-15T01:40:57;13.40;99.90
21246;DHT22;10781;50.928;4.440;2022-11-15T01:43:30;13.50;99.90
21246;DHT22;10781;50.928;4.440;2022-11-15T01:46:23;13.40;99.90
21246;DHT22;10781;50.928;4.440;2022-11-15T01:48:52;13.50;99.90
21246;DHT22;10781;50.928;4.440;2022-11-15T01:51:21;13.50;99.90
21246;DHT22;10781;50.928;4.440;2022-11-15T01:53:50;13.50;99.90
21246;DHT22;10781;50.928;4.440;2022-11-15T01:56:19;13.50;99.90
21246;DHT22;10781;50.928;4.440;2022-11-15T01:58:47;13.30;99.90
21246;DHT22;10781;50.928;4.440;2022-11-15T02:01:13;13.30;99.90
21246;DHT22;10781;50.928;4.440;2022-11-15T02:03:56;13.30;99.90
21246;DHT22;10781;50.928;4.440;2022-11-15T02:06:22;13.30;99.90
21246;DHT22;10781;50.928;4.440;2022-11-15T02:08:49;13.30;99.90
21246;DHT22;10781;50.928;4.440;2022-11-15T02:11:15;13.20;99.90
21246;DHT22;10781;50.928;4.440;2022-11-15T02:13:41;13.10;99.90
21246;DHT22;10781;50.928;4.440;2022-11-15T02:18:49;13.00;99.90
21246;DHT22;10781;50.928;4.440;2022-11-15T02:24:23;13.10;99.90
21246;DHT22;10781;50.928;4.440;2022-11-15T02:32:40;13.20;99.90
21246;DHT22;10781;50.928;4.440;2022-11-15T02:38:07;13.20;99.90
21246;DHT22;10781;50.928;4.440;2022-11-15T02:40:45;13.20;99.90
21246;DHT22;10781;50.928;4.440;2022-11-15T02:43:19;13.20;99.90
21246;DHT22;10781;50.928;4.440;2022-11-15T02:46:11;13.00;99.90
21246;DHT22;10781;50.928;4.440;2022-11-15T02:48:41;13.00;99.90
21246;DHT22;10781;50.928;4.440;2022-11-15T02:51:08;13.10;99.90
21246;DHT22;10781;50.928;4.440;2022-11-15T02:53:34;13.20;99.90
21246;DHT22;10781;50.928;4.440;2022-11-15T02:56:00;13.20;99.90
21246;DHT22;10781;50.928;4.440;2022-11-15T03:12:28;13.10;99.90
21246;DHT22;10781;50.928;4.440;2022-11-15T03:15:06;13.10;99.90
21246;DHT22;10781;50.928;4.440;2022-11-15T03:17:43;13.10;99.90
21246;DHT22;10781;50.928;4.440;2022-11-15T03:20:14;13.10;99.90
21246;DHT22;10781;50.928;4.440;2022-11-15T03:22:44;12.90;99.90
21246;DHT22;10781;50.928;4.440;2022-11-15T03:25:16;13.00;99.90
21246;DHT22;10781;50.928;4.440;2022-11-15T03:27:46;13.00;99.90
21246;DHT22;10781;50.928;4.440;2022-11-15T03:30:13;13.00;99.90
21246;DHT22;10781;50.928;4.440;2022-11-15T03:32:56;13.00;99.90
21246;DHT22;10781;50.928;4.440;2022-11-15T03:35:24;13.10;99.90
21246;DHT22;10781;50.928;4.440;2022-11-15T03:40:47;13.00;99.90
21246;DHT22;10781;50.928;4.440;2022-11-15T03:46:12;12.90;99.90
21246;DHT22;10781;50.928;4.440;2022-11-15T03:48:49;12.80;99.90
21246;DHT22;10781;50.928;4.440;2022-11-15T03:51:20;12.90;99.90
21246;DHT22;10781;50.928;4.440;2022-11-15T03:53:46;12.80;99.90
21246;DHT22;10781;50.928;4.440;2022-11-15T03:56:11;12.90;99.90
21246;DHT22;10781;50.928;4.440;2022-11-15T03:58:37;13.00;99.90
21246;DHT22;10781;50.928;4.440;2022-11-15T04:01:03;13.00;99.90
21246;DHT22;10781;50.928;4.440;2022-11-15T04:03:29;12.80;99.90
21246;DHT22;10781;50.928;4.440;2022-11-15T04:05:54;12.70;99.90
21246;DHT22;10781;50.928;4.440;2022-11-15T04:08:20;12.80;99.90
21246;DHT22;10781;50.928;4.440;2022-11-15T04:10:48;12.90;99.90
21246;DHT22;10781;50.928;4.440;2022-11-15T04:13:14;13.00;99.90
21246;DHT22;10781;50.928;4.440;2022-11-15T04:15:40;13.00;99.90
21246;DHT22;10781;50.928;4.440;2022-11-15T04:18:05;13.00;99.90
21246;DHT22;10781;50.928;4.440;2022-11-15T04:20:31;13.00;99.90
21246;DHT22;10781;50.928;4.440;2022-11-15T04:23:21;12.90;99.90
21246;DHT22;10781;50.928;4.440;2022-11-15T04:26:10;12.90;99.90
21246;DHT22;10781;50.928;4.440;2022-11-15T04:28:37;12.80;99.90
21246;DHT22;10781;50.928;4.440;2022-11-15T04:31:22;12.90;99.90
21246;DHT22;10781;50.928;4.440;2022-11-15T04:33:48;12.90;99.90
21246;DHT22;10781;50.928;4.440;2022-11-15T04:36:14;13.00;99.90
21246;DHT22;10781;50.928;4.440;2022-11-15T04:38:58;12.90;99.90
21246;DHT22;10781;50.928;4.440;2022-11-15T04:41:23;12.90;99.90
21246;DHT22;10781;50.928;4.440;2022-11-15T04:43:49;13.00;99.90
21246;DHT22;10781;50.928;4.440;2022-11-15T04:46:15;13.00;99.90
21246;DHT22;10781;50.928;4.440;2022-11-15T04:48:40;13.10;99.90
21246;DHT22;10781;50.928;4.440;2022-11-15T04:51:06;13.00;99.90
21246;DHT22;10781;50.928;4.440;2022-11-15T04:53:31;13.00;99.90
21246;DHT22;10781;50.928;4.440;2022-11-15T04:55:57;12.80;99.90
21246;DHT22;10781;50.928;4.440;2022-11-15T04:58:23;12.90;99.90
21246;DHT22;10781;50.928;4.440;2022-11-15T05:00:48;12.90;99.90
21246;DHT22;10781;50.928;4.440;2022-11-15T05:03:14;12.90;99.90
21246;DHT22;10781;50.928;4.440;2022-11-15T05:05:58;12.70;99.90
21246;DHT22;10781;50.928;4.440;2022-11-15T05:08:24;12.70;99.90
21246;DHT22;10781;50.928;4.440;2022-11-15T05:10:50;12.70;99.90
21246;DHT22;10781;50.928;4.440;2022-11-15T05:13:16;12.60;99.90
21246;DHT22;10781;50.928;4.440;2022-11-15T05:15:42;12.60;99.90
21246;DHT22;10781;50.928;4.440;2022-11-15T05:18:07;12.40;99.90
21246;DHT22;10781;50.928;4.440;2022-11-15T05:20:33;12.40;99.90
21246;DHT22;10781;50.928;4.440;2022-11-15T05:22:58;12.30;99.90
21246;DHT22;10781;50.928;4.440;2022-11-15T05:25:24;12.40;99.90
21246;DHT22;10781;50.928;4.440;2022-11-15T05:27:50;12.30;99.90
21246;DHT22;10781;50.928;4.440;2022-11-15T05:30:16;12.40;99.90
21246;DHT22;10781;50.928;4.440;2022-11-15T05:32:42;12.30;99.90
21246;DHT22;10781;50.928;4.440;2022-11-15T05:35:13;12.20;99.90
21246;DHT22;10781;50.928;4.440;2022-11-15T05:37:40;12.10;99.90
21246;DHT22;10781;50.928;4.440;2022-11-15T05:40:06;12.20;99.90
21246;DHT22;10781;50.928;4.440;2022-11-15T05:42:32;12.20;99.90
21246;DHT22;10781;50.928;4.440;2022-11-15T05:44:59;12.20;99.90
21246;DHT22;10781;50.928;4.440;2022-11-15T05:47:27;12.30;99.90
21246;DHT22;10781;50.928;4.440;2022-11-15T05:49:58;12.20;99.90
21246;DHT22;10781;50.928;4.440;2022-11-15T05:52:27;12.10;99.90
21246;DHT22;10781;50.928;4.440;2022-11-15T05:54:53;12.30;99.90
21246;DHT22;10781;50.928;4.440;2022-11-15T05:57:19;12.20;99.90
21246;DHT22;10781;50.928;4.440;2022-11-15T05:59:45;12.10;99.90
21246;DHT22;10781;50.928;4.440;2022-11-15T06:02:11;12.00;99.90
21246;DHT22;10781;50.928;4.440;2022-11-15T06:04:36;11.90;99.90
21246;DHT22;10781;50.928;4.440;2022-11-15T06:07:02;11.90;99.90
21246;DHT22;10781;50.928;4.440;2022-11-15T06:09:28;11.90;99.90
21246;DHT22;10781;50.928;4.440;2022-11-15T06:11:53;11.80;99.90
21246;DHT22;10781;50.928;4.440;2022-11-15T06:14:19;12.00;99.90
21246;DHT22;10781;50.928;4.440;2022-11-15T06:16:44;11.90;99.90
21246;DHT22;10781;50.928;4.440;2022-11-15T06:19:10;11.90;99.90
21246;DHT22;10781;50.928;4.440;2022-11-15T06:21:36;11.80;99.90
21246;DHT22;10781;50.928;4.440;2022-11-15T06:24:01;11.70;99.90
21246;DHT22;10781;50.928;4.440;2022-11-15T06:26:27;11.60;99.90
21246;DHT22;10781;50.928;4.440;2022-11-15T06:28:52;11.60;99.90
21246;DHT22;10781;50.928;4.440;2022-11-15T06:31:18;11.40;99.90
21246;DHT22;10781;50.928;4.440;2022-11-15T06:33:44;11.40;99.90
21246;DHT22;10781;50.928;4.440;2022-11-15T06:36:13;11.50;99.90
21246;DHT22;10781;50.928;4.440;2022-11-15T06:38:40;11.50;99.90
21246;DHT22;10781;50.928;4.440;2022-11-15T06:41:08;11.40;99.90
21246;DHT22;10781;50.928;4.440;2022-11-15T06:43:34;11.30;99.90
21246;DHT22;10781;50.928;4.440;2022-11-15T06:46:01;11.20;99.90
21246;DHT22;10781;50.928;4.440;2022-11-15T06:48:28;11.10;99.90
21246;DHT22;10781;50.928;4.440;2022-11-15T06:50:56;11.10;99.90
21246;DHT22;10781;50.928;4.440;2022-11-15T06:53:22;11.10;99.90
21246;DHT22;10781;50.928;4.440;2022-11-15T06:55:48;11.30;99.90
21246;DHT22;10781;50.928;4.440;2022-11-15T06:58:14;11.20;99.90
21246;DHT22;10781;50.928;4.440;2022-11-15T07:00:40;11.20;99.90
21246;DHT22;10781;50.928;4.440;2022-11-15T07:03:06;11.20;99.90
21246;DHT22;10781;50.928;4.440;2022-11-15T07:05:32;11.10;99.90
21246;DHT22;10781;50.928;4.440;2022-11-15T07:07:58;11.00;99.90
21246;DHT22;10781;50.928;4.440;2022-11-15T07:10:24;11.00;99.90
21246;DHT22;10781;50.928;4.440;2022-11-15T07:12:54;11.00;99.90
21246;DHT22;10781;50.928;4.440;2022-11-15T07:15:25;11.10;99.90
21246;DHT22;10781;50.928;4.440;2022-11-15T07:17:51;11.10;99.90
21246;DHT22;10781;50.928;4.440;2022-11-15T07:20:17;11.20;99.90
21246;DHT22;10781;50.928;4.440;2022-11-15T07:22:44;11.30;99.90
21246;DHT22;10781;50.928;4.440;2022-11-15T07:25:12;11.10;99.90
21246;DHT22;10781;50.928;4.440;2022-11-15T07:27:38;10.90;99.90
21246;DHT22;10781;50.928;4.440;2022-11-15T07:30:04;10.90;99.90
21246;DHT22;10781;50.928;4.440;2022-11-15T07:32:30;11.00;99.90
21246;DHT22;10781;50.928;4.440;2022-11-15T07:34:56;11.10;99.90
21246;DHT22;10781;50.928;4.440;2022-11-15T07:37:21;11.10;99.90
21246;DHT22;10781;50.928;4.440;2022-11-15T07:39:47;11.20;99.90
21246;DHT22;10781;50.928;4.440;2022-11-15T07:42:13;11.10;99.90
21246;DHT22;10781;50.928;4.440;2022-11-15T07:44:57;11.20;99.90
21246;DHT22;10781;50.928;4.440;2022-11-15T07:47:23;11.20;99.90
21246;DHT22;10781;50.928;4.440;2022-11-15T07:49:48;11.30;99.90
21246;DHT22;10781;50.928;4.440;2022-11-15T07:52:14;11.30;99.90
21246;DHT22;10781;50.928;4.440;2022-11-15T07:54:39;11.20;99.90
21246;DHT22;10781;50.928;4.440;2022-11-15T07:57:05;11.30;99.90
21246;DHT22;10781;50.928;4.440;2022-11-15T07:59:32;11.40;99.90
21246;DHT22;10781;50.928;4.440;2022-11-15T08:01:58;11.30;99.90
21246;DHT22;10781;50.928;4.440;2022-11-15T08:04:23;11.10;99.90
21246;DHT22;10781;50.928;4.440;2022-11-15T08:06:49;11.20;99.90
21246;DHT22;10781;50.928;4.440;2022-11-15T08:09:14;11.20;99.90
21246;DHT22;10781;50.928;4.440;2022-11-15T08:11:40;11.20;99.90
21246;DHT22;10781;50.928;4.440;2022-11-15T08:14:05;11.20;99.90
21246;DHT22;10781;50.928;4.440;2022-11-15T08:16:31;11.10;99.90
21246;DHT22;10781;50.928;4.440;2022-11-15T08:18:57;11.10;99.90
21246;DHT22;10781;50.928;4.440;2022-11-15T08:21:23;11.10;99.90
21246;DHT22;10781;50.928;4.440;2022-11-15T08:23:49;11.00;99.90
21246;DHT22;10781;50.928;4.440;2022-11-15T08:26:14;11.10;99.90
21246;DHT22;10781;50.928;4.440;2022-11-15T08:28:41;11.00;99.90
21246;DHT22;10781;50.928;4.440;2022-11-15T08:31:06;11.00;99.90
21246;DHT22;10781;50.928;4.440;2022-11-15T08:33:32;11.00;99.90
21246;DHT22;10781;50.928;4.440;2022-11-15T08:36:01;11.00;99.90
21246;DHT22;10781;50.928;4.440;2022-11-15T08:38:27;11.10;99.90
21246;DHT22;10781;50.928;4.440;2022-11-15T08:41:01;11.10;99.90
21246;DHT22;10781;50.928;4.440;2022-11-15T08:43:27;11.20;99.90
21246;DHT22;10781;50.928;4.440;2022-11-15T08:45:56;11.30;99.90
21246;DHT22;10781;50.928;4.440;2022-11-15T08:48:22;11.30;99.90
21246;DHT22;10781;50.928;4.440;2022-11-15T08:50:48;11.50;99.90
21246;DHT22;10781;50.928;4.440;2022-11-15T08:53:13;11.30;99.90
21246;DHT22;10781;50.928;4.440;2022-11-15T08:55:40;11.40;99.90
21246;DHT22;10781;50.928;4.440;2022-11-15T08:58:05;11.40;99.90
21246;DHT22;10781;50.928;4.440;2022-11-15T09:00:31;11.30;99.90
21246;DHT22;10781;50.928;4.440;2022-11-15T09:02:57;11.30;99.90
21246;DHT22;10781;50.928;4.440;2022-11-15T09:05:23;11.30;99.90
21246;DHT22;10781;50.928;4.440;2022-11-15T09:07:53;11.50;99.90
21246;DHT22;10781;50.928;4.440;2022-11-15T09:10:19;11.70;99.90
21246;DHT22;10781;50.928;4.440;2022-11-15T09:12:45;11.70;99.90
21246;DHT22;10781;50.928;4.440;2022-11-15T09:15:14;11.60;99.90
21246;DHT22;10781;50.928;4.440;2022-11-15T09:17:40;11.50;99.90
21246;DHT22;10781;50.928;4.440;2022-11-15T09:20:07;11.60;99.90
21246;DHT22;10781;50.928;4.440;2022-11-15T09:22:32;11.60;99.90
21246;DHT22;10781;50.928;4.440;2022-11-15T09:24:58;11.70;99.90
21246;DHT22;10781;50.928;4.440;2022-11-15T09:27:30;11.70;99.90
21246;DHT22;10781;50.928;4.440;2022-11-15T09:29:56;11.70;99.90
21246;DHT22;10781;50.928;4.440;2022-11-15T09:32:22;11.70;99.90
21246;DHT22;10781;50.928;4.440;2022-11-15T09:34:49;11.70;99.90
21246;DHT22;10781;50.928;4.440;2022-11-15T09:37:15;11.60;99.90
21246;DHT22;10781;50.928;4.440;2022-11-15T09:39:40;11.90;99.90
21246;DHT22;10781;50.928;4.440;2022-11-15T09:42:09;11.90;99.90
21246;DHT22;10781;50.928;4.440;2022-11-15T09:44:56;11.80;99.90
21246;DHT22;10781;50.928;4.440;2022-11-15T09:50:01;12.00;99.90
21246;DHT22;10781;50.928;4.440;2022-11-15T09:52:34;12.10;99.90
21246;DHT22;10781;50.928;4.440;2022-11-15T09:55:00;12.00;99.90
21246;DHT22;10781;50.928;4.440;2022-11-15T10:00:19;12.20;99.90
21246;DHT22;10781;50.928;4.440;2022-11-15T10:03:12;12.10;99.90
21246;DHT22;10781;50.928;4.440;2022-11-15T10:05:45;12.20;99.90
21246;DHT22;10781;50.928;4.440;2022-11-15T10:10:45;12.20;99.90
21246;DHT22;10781;50.928;4.440;2022-11-15T10:13:36;12.30;99.90
21246;DHT22;10781;50.928;4.440;2022-11-15T10:18:58;12.70;99.90
21246;DHT22;10781;50.928;4.440;2022-11-15T10:24:16;12.90;99.90
21246;DHT22;10781;50.928;4.440;2022-11-15T10:26:48;13.10;99.90
21246;DHT22;10781;50.928;4.440;2022-11-15T10:29:24;13.30;99.90
21246;DHT22;10781;50.928;4.440;2022-11-15T10:31:50;13.30;99.90
21246;DHT22;10781;50.928;4.440;2022-11-15T10:34:17;13.20;99.90
21246;DHT22;10781;50.928;4.440;2022-11-15T10:37:03;13.50;99.90
21246;DHT22;10781;50.928;4.440;2022-11-15T10:39:29;13.50;99.90
21246;DHT22;10781;50.928;4.440;2022-11-15T10:41:54;13.50;99.90
21246;DHT22;10781;50.928;4.440;2022-11-15T10:44:29;13.50;99.90
21246;DHT22;10781;50.928;4.440;2022-11-15T10:49:28;13.50;99.90
21246;DHT22;10781;50.928;4.440;2022-11-15T10:54:34;13.70;99.90
21246;DHT22;10781;50.928;4.440;2022-11-15T10:57:07;13.80;99.90
21246;DHT22;10781;50.928;4.440;2022-11-15T10:59:36;13.60;99.90
21246;DHT22;10781;50.928;4.440;2022-11-15T11:02:20;13.70;99.90
21246;DHT22;10781;50.928;4.440;2022-11-15T11:04:52;13.70;99.90
21246;DHT22;10781;50.928;4.440;2022-11-15T11:07:27;13.70;99.90
21246;DHT22;10781;50.928;4.440;2022-11-15T11:10:20;13.60;99.90
21246;DHT22;10781;50.928;4.440;2022-11-15T11:12:46;13.60;99.90
21246;DHT22;10781;50.928;4.440;2022-11-15T11:15:14;13.80;99.90
21246;DHT22;10781;50.928;4.440;2022-11-15T11:18:10;13.90;99.90
21246;DHT22;10781;50.928;4.440;2022-11-15T11:20:45;13.70;99.90
21246;DHT22;10781;50.928;4.440;2022-11-15T11:24:02;13.50;99.90
21246;DHT22;10781;50.928;4.440;2022-11-15T11:27:11;13.30;99.90
21246;DHT22;10781;50.928;4.440;2022-11-15T11:29:42;13.60;99.90
21246;DHT22;10781;50.928;4.440;2022-11-15T11:44:07;14.40;99.90
21246;DHT22;10781;50.928;4.440;2022-11-15T11:47:22;14.80;99.90
21246;DHT22;10781;50.928;4.440;2022-11-15T11:49:56;14.60;99.90
21246;DHT22;10781;50.928;4.440;2022-11-15T11:52:42;14.60;99.90
21246;DHT22;10781;50.928;4.440;2022-11-15T11:55:16;14.60;99.90
21246;DHT22;10781;50.928;4.440;2022-11-15T12:00:28;14.60;99.90
21246;DHT22;10781;50.928;4.440;2022-11-15T12:12:23;14.50;99.90
21246;DHT22;10781;50.928;4.440;2022-11-15T12:14:54;14.60;99.90
21246;DHT22;10781;50.928;4.440;2022-11-15T12:17:27;14.80;99.90
21246;DHT22;10781;50.928;4.440;2022-11-15T12:19:59;14.80;99.90
21246;DHT22;10781;50.928;4.440;2022-11-15T12:22:47;14.80;99.90
21246;DHT22;10781;50.928;4.440;2022-11-15T12:31:16;14.30;99.90
21246;DHT22;10781;50.928;4.440;2022-11-15T12:33:44;14.40;99.90
21246;DHT22;10781;50.928;4.440;2022-11-15T12:38:55;14.40;99.90
21246;DHT22;10781;50.928;4.440;2022-11-15T12:41:26;14.40;99.90
21246;DHT22;10781;50.928;4.440;2022-11-15T12:43:52;14.40;99.90
21246;DHT22;10781;50.928;4.440;2022-11-15T12:49:00;14.20;99.90
21246;DHT22;10781;50.928;4.440;2022-11-15T12:59:50;14.10;99.90
21246;DHT22;10781;50.928;4.440;2022-11-15T13:04:47;13.90;99.90
21246;DHT22;10781;50.928;4.440;2022-11-15T13:10:00;14.00;99.90
21246;DHT22;10781;50.928;4.440;2022-11-15T13:17:35;14.00;99.90
21246;DHT22;10781;50.928;4.440;2022-11-15T13:22:27;14.10;99.90
21246;DHT22;10781;50.928;4.440;2022-11-15T13:33:25;14.10;99.90
21246;DHT22;10781;50.928;4.440;2022-11-15T13:35:55;14.10;99.90
21246;DHT22;10781;50.928;4.440;2022-11-15T13:38:33;14.00;99.90
21246;DHT22;10781;50.928;4.440;2022-11-15T13:41:20;14.00;99.90
21246;DHT22;10781;50.928;4.440;2022-11-15T13:43:48;13.90;99.90
21246;DHT22;10781;50.928;4.440;2022-11-15T13:46:28;14.00;99.90
21246;DHT22;10781;50.928;4.440;2022-11-15T13:49:05;13.90;99.90
21246;DHT22;10781;50.928;4.440;2022-11-15T13:52:02;13.80;99.90
21246;DHT22;10781;50.928;4.440;2022-11-15T13:54:30;13.90;99.90
21246;DHT22;10781;50.928;4.440;2022-11-15T13:57:02;14.00;99.90
21246;DHT22;10781;50.928;4.440;2022-11-15T13:59:33;13.90;99.90
21246;DHT22;10781;50.928;4.440;2022-11-15T14:02:14;13.80;99.90
21246;DHT22;10781;50.928;4.440;2022-11-15T14:05:17;13.90;99.90
21246;DHT22;10781;50.928;4.440;2022-11-15T14:08:12;14.00;99.90
21246;DHT22;10781;50.928;4.440;2022-11-15T14:10:39;14.10;99.90
21246;DHT22;10781;50.928;4.440;2022-11-15T14:13:25;14.20;99.90
21246;DHT22;10781;50.928;4.440;2022-11-15T14:15:51;14.10;99.90
21246;DHT22;10781;50.928;4.440;2022-11-15T14:18:44;14.00;99.90
21246;DHT22;10781;50.928;4.440;2022-11-15T14:21:10;14.10;99.90
21246;DHT22;10781;50.928;4.440;2022-11-15T14:23:36;14.20;99.90
21246;DHT22;10781;50.928;4.440;2022-11-15T14:26:01;14.10;99.90
21246;DHT22;10781;50.928;4.440;2022-11-15T14:28:31;14.20;99.90
21246;DHT22;10781;50.928;4.440;2022-11-15T14:30:59;14.10;99.90
21246;DHT22;10781;50.928;4.440;2022-11-15T14:33:34;13.90;99.90
21246;DHT22;10781;50.928;4.440;2022-11-15T14:38:32;13.70;99.90
21246;DHT22;10781;50.928;4.440;2022-11-15T14:40:58;13.60;99.90
21246;DHT22;10781;50.928;4.440;2022-11-15T14:43:24;13.60;99.90
21246;DHT22;10781;50.928;4.440;2022-11-15T14:45:49;13.50;99.90
21246;DHT22;10781;50.928;4.440;2022-11-15T14:48:15;13.50;99.90
21246;DHT22;10781;50.928;4.440;2022-11-15T14:50:41;13.40;99.90
21246;DHT22;10781;50.928;4.440;2022-11-15T14:53:06;13.30;99.90
21246;DHT22;10781;50.928;4.440;2022-11-15T14:55:35;13.20;99.90
21246;DHT22;10781;50.928;4.440;2022-11-15T14:58:02;13.20;99.90
21246;DHT22;10781;50.928;4.440;2022-11-15T15:00:32;13.10;99.90
21246;DHT22;10781;50.928;4.440;2022-11-15T15:02:58;13.20;99.90
21246;DHT22;10781;50.928;4.440;2022-11-15T15:07:55;13.10;99.90
21246;DHT22;10781;50.928;4.440;2022-11-15T15:10:21;13.20;99.90
21246;DHT22;10781;50.928;4.440;2022-11-15T15:12:47;13.30;99.90
21246;DHT22;10781;50.928;4.440;2022-11-15T15:15:16;13.30;99.90
21246;DHT22;10781;50.928;4.440;2022-11-15T15:17:42;13.20;99.90
21246;DHT22;10781;50.928;4.440;2022-11-15T15:20:09;13.20;99.90
21246;DHT22;10781;50.928;4.440;2022-11-15T15:22:35;13.10;99.90
21246;DHT22;10781;50.928;4.440;2022-11-15T15:25:01;13.00;99.90
21246;DHT22;10781;50.928;4.440;2022-11-15T15:27:27;12.90;99.90
21246;DHT22;10781;50.928;4.440;2022-11-15T15:29:53;12.80;99.90
21246;DHT22;10781;50.928;4.440;2022-11-15T15:32:19;12.70;99.90
21246;DHT22;10781;50.928;4.440;2022-11-15T15:34:44;12.70;99.90
21246;DHT22;10781;50.928;4.440;2022-11-15T15:37:26;12.70;99.90
21246;DHT22;10781;50.928;4.440;2022-11-15T15:39:53;12.80;99.90
21246;DHT22;10781;50.928;4.440;2022-11-15T15:42:20;12.70;99.90
21246;DHT22;10781;50.928;4.440;2022-11-15T15:44:46;12.80;99.90
21246;DHT22;10781;50.928;4.440;2022-11-15T15:47:22;12.80;99.90
21246;DHT22;10781;50.928;4.440;2022-11-15T15:49:49;12.70;99.90
21246;DHT22;10781;50.928;4.440;2022-11-15T15:52:16;12.60;99.90
21246;DHT22;10781;50.928;4.440;2022-11-15T15:54:42;12.60;99.90
21246;DHT22;10781;50.928;4.440;2022-11-15T15:57:10;12.60;99.90
21246;DHT22;10781;50.928;4.440;2022-11-15T15:59:36;12.60;99.90
21246;DHT22;10781;50.928;4.440;2022-11-15T16:02:02;12.50;99.90
21246;DHT22;10781;50.928;4.440;2022-11-15T16:04:28;12.40;99.90
21246;DHT22;10781;50.928;4.440;2022-11-15T16:06:59;12.40;99.90
21246;DHT22;10781;50.928;4.440;2022-11-15T16:09:24;12.40;99.90
21246;DHT22;10781;50.928;4.440;2022-11-15T16:12:09;12.30;99.90
21246;DHT22;10781;50.928;4.440;2022-11-15T16:14:35;12.30;99.90
21246;DHT22;10781;50.928;4.440;2022-11-15T16:17:01;12.20;99.90
21246;DHT22;10781;50.928;4.440;2022-11-15T16:19:26;12.20;99.90
21246;DHT22;10781;50.928;4.440;2022-11-15T16:21:52;12.20;99.90
21246;DHT22;10781;50.928;4.440;2022-11-15T16:24:18;12.20;99.90
21246;DHT22;10781;50.928;4.440;2022-11-15T16:26:45;12.20;99.90
21246;DHT22;10781;50.928;4.440;2022-11-15T16:29:10;12.20;99.90
21246;DHT22;10781;50.928;4.440;2022-11-15T16:31:36;12.20;99.90
21246;DHT22;10781;50.928;4.440;2022-11-15T16:34:02;12.20;99.90
21246;DHT22;10781;50.928;4.440;2022-11-15T16:36:32;12.20;99.90
21246;DHT22;10781;50.928;4.440;2022-11-15T16:38:59;12.20;99.90
21246;DHT22;10781;50.928;4.440;2022-11-15T16:41:24;12.10;99.90
21246;DHT22;10781;50.928;4.440;2022-11-15T16:43:50;12.10;99.90
21246;DHT22;10781;50.928;4.440;2022-11-15T16:48:46;12.20;99.90
21246;DHT22;10781;50.928;4.440;2022-11-15T16:51:12;12.20;99.90
21246;DHT22;10781;50.928;4.440;2022-11-15T16:53:38;12.30;99.90
21246;DHT22;10781;50.928;4.440;2022-11-15T16:58:42;12.30;99.90
21246;DHT22;10781;50.928;4.440;2022-11-15T17:01:16;12.30;99.90
21246;DHT22;10781;50.928;4.440;2022-11-15T17:03:43;12.30;99.90
21246;DHT22;10781;50.928;4.440;2022-11-15T17:06:09;12.30;99.90
21246;DHT22;10781;50.928;4.440;2022-11-15T17:08:35;12.30;99.90
21246;DHT22;10781;50.928;4.440;2022-11-15T17:11:04;12.30;99.90
21246;DHT22;10781;50.928;4.440;2022-11-15T17:13:31;12.30;99.90
21246;DHT22;10781;50.928;4.440;2022-11-15T17:16:09;12.30;99.90
21246;DHT22;10781;50.928;4.440;2022-11-15T17:18:35;12.30;99.90
21246;DHT22;10781;50.928;4.440;2022-11-15T17:21:21;12.50;99.90
21246;DHT22;10781;50.928;4.440;2022-11-15T17:23:47;12.60;99.90
21246;DHT22;10781;50.928;4.440;2022-11-15T17:26:14;12.70;99.90
21246;DHT22;10781;50.928;4.440;2022-11-15T17:28:40;12.60;99.90
21246;DHT22;10781;50.928;4.440;2022-11-15T17:31:08;12.60;99.90
21246;DHT22;10781;50.928;4.440;2022-11-15T17:33:34;12.60;99.90
21246;DHT22;10781;50.928;4.440;2022-11-15T17:36:02;12.80;99.90
21246;DHT22;10781;50.928;4.440;2022-11-15T17:38:28;12.80;99.90
21246;DHT22;10781;50.928;4.440;2022-11-15T17:41:20;12.90;99.90
21246;DHT22;10781;50.928;4.440;2022-11-15T17:43:46;13.00;99.90
21246;DHT22;10781;50.928;4.440;2022-11-15T17:46:14;13.00;99.90
21246;DHT22;10781;50.928;4.440;2022-11-15T17:48:40;12.90;99.90
21246;DHT22;10781;50.928;4.440;2022-11-15T17:51:10;13.00;99.90